sensor_id;sensor_type;location;lat;lon;timestamp;pressure;altitude;pressure_sealevel;temperature
19282;BMP180;9774;52.034;5.342;2023-07-31T00:00:31;100797.00;;;21.70
19282;BMP180;9774;52.034;5.342;2023-07-31T00:02:58;100790.00;;;21.70
19282;BMP180;9774;52.034;5.342;2023-07-31T00:05:25;100784.00;;;21.80
19282;BMP180;9774;52.034;5.342;2023-07-31T00:07:53;100790.00;;;21.80
19282;BMP180;9774;52.034;5.342;2023-07-31T00:10:22;100784.00;;;21.80
19282;BMP180;9774;52.034;5.342;2023-07-31T00:12:49;100778.00;;;21.80
19282;BMP180;9774;52.034;5.342;2023-07-31T00:15:16;100775.00;;;21.80
19282;BMP180;9774;52.034;5.342;2023-07-31T00:17:44;100765.00;;;21.80
19282;BMP180;9774;52.034;5.342;2023-07-31T00:20:11;100759.00;;;21.80
19282;BMP180;9774;52.034;5.342;2023-07-31T00:22:38;100761.00;;;21.90
19282;BMP180;9774;52.034;5.342;2023-07-31T00:25:06;100754.00;;;21.90
19282;BMP180;9774;52.034;5.342;2023-07-31T00:27:35;100760.00;;;21.90
19282;BMP180;9774;52.034;5.342;2023-07-31T00:30:02;100758.00;;;21.90
19282;BMP180;9774;52.034;5.342;2023-07-31T00:32:30;100760.00;;;22.00
19282;BMP180;9774;52.034;5.342;2023-07-31T00:34:57;100759.00;;;22.00
19282;BMP180;9774;52.034;5.342;2023-07-31T00:37:24;100763.00;;;22.00
19282;BMP180;9774;52.034;5.342;2023-07-31T00:39:52;100760.00;;;22.10
19282;BMP180;9774;52.034;5.342;2023-07-31T00:42:19;100756.00;;;22.10
19282;BMP180;9774;52.034;5.342;2023-07-31T00:44:47;100755.00;;;22.10
19282;BMP180;9774;52.034;5.342;2023-07-31T00:47:15;100753.00;;;22.20
19282;BMP180;9774;52.034;5.342;2023-07-31T00:49:42;100759.00;;;22.20
19282;BMP180;9774;52.034;5.342;2023-07-31T00:52:10;100757.00;;;22.30
19282;BMP180;9774;52.034;5.342;2023-07-31T00:54:38;100758.00;;;22.30
19282;BMP180;9774;52.034;5.342;2023-07-31T00:57:05;100750.00;;;22.30
19282;BMP180;9774;52.034;5.342;2023-07-31T00:59:34;100753.00;;;22.40
19282;BMP180;9774;52.034;5.342;2023-07-31T01:02:03;100745.00;;;22.40
19282;BMP180;9774;52.034;5.342;2023-07-31T01:04:31;100756.00;;;22.50
19282;BMP180;9774;52.034;5.342;2023-07-31T01:07:04;100756.00;;;22.40
19282;BMP180;9774;52.034;5.342;2023-07-31T01:09:36;100758.00;;;22.50
19282;BMP180;9774;52.034;5.342;2023-07-31T01:12:07;100747.00;;;22.50
19282;BMP180;9774;52.034;5.342;2023-07-31T01:14:36;100740.00;;;22.50
19282;BMP180;9774;52.034;5.342;2023-07-31T01:17:05;100743.00;;;22.50
19282;BMP180;9774;52.034;5.342;2023-07-31T01:19:32;100741.00;;;22.60
19282;BMP180;9774;52.034;5.342;2023-07-31T01:22:17;100748.00;;;22.50
19282;BMP180;9774;52.034;5.342;2023-07-31T01:24:56;100749.00;;;22.50
19282;BMP180;9774;52.034;5.342;2023-07-31T01:27:30;100747.00;;;22.50
19282;BMP180;9774;52.034;5.342;2023-07-31T01:30:08;100743.00;;;22.50
19282;BMP180;9774;52.034;5.342;2023-07-31T01:32:38;100745.00;;;22.60
19282;BMP180;9774;52.034;5.342;2023-07-31T01:35:06;100742.00;;;22.60
19282;BMP180;9774;52.034;5.342;2023-07-31T01:37:34;100746.00;;;22.60
19282;BMP180;9774;52.034;5.342;2023-07-31T01:40:01;100747.00;;;22.60
19282;BMP180;9774;52.034;5.342;2023-07-31T01:42:30;100744.00;;;22.60
19282;BMP180;9774;52.034;5.342;2023-07-31T01:44:58;100753.00;;;22.60
19282;BMP180;9774;52.034;5.342;2023-07-31T01:47:25;100748.00;;;22.60
19282;BMP180;9774;52.034;5.342;2023-07-31T01:49:52;100750.00;;;22.60
19282;BMP180;9774;52.034;5.342;2023-07-31T01:52:19;100744.00;;;22.60
19282;BMP180;9774;52.034;5.342;2023-07-31T01:54:47;100741.00;;;22.60
19282;BMP180;9774;52.034;5.342;2023-07-31T01:57:14;100744.00;;;22.60
19282;BMP180;9774;52.034;5.342;2023-07-31T01:59:43;100746.00;;;22.60
19282;BMP180;9774;52.034;5.342;2023-07-31T02:02:10;100750.00;;;22.60
19282;BMP180;9774;52.034;5.342;2023-07-31T02:04:37;100739.00;;;22.60
19282;BMP180;9774;52.034;5.342;2023-07-31T02:07:05;100732.00;;;22.60
19282;BMP180;9774;52.034;5.342;2023-07-31T02:09:33;100729.00;;;22.60
19282;BMP180;9774;52.034;5.342;2023-07-31T02:12:00;100722.00;;;22.60
19282;BMP180;9774;52.034;5.342;2023-07-31T02:14:27;100718.00;;;22.60
19282;BMP180;9774;52.034;5.342;2023-07-31T02:16:56;100716.00;;;22.50
19282;BMP180;9774;52.034;5.342;2023-07-31T02:19:23;100715.00;;;22.60
19282;BMP180;9774;52.034;5.342;2023-07-31T02:21:50;100706.00;;;22.60
19282;BMP180;9774;52.034;5.342;2023-07-31T02:24:18;100698.00;;;22.60
19282;BMP180;9774;52.034;5.342;2023-07-31T02:26:45;100699.00;;;22.60
19282;BMP180;9774;52.034;5.342;2023-07-31T02:29:12;100693.00;;;22.60
19282;BMP180;9774;52.034;5.342;2023-07-31T02:31:39;100692.00;;;22.60
19282;BMP180;9774;52.034;5.342;2023-07-31T02:34:08;100688.00;;;22.60
19282;BMP180;9774;52.034;5.342;2023-07-31T02:36:35;100695.00;;;22.60
19282;BMP180;9774;52.034;5.342;2023-07-31T02:39:03;100687.00;;;22.60
19282;BMP180;9774;52.034;5.342;2023-07-31T02:41:30;100679.00;;;22.60
19282;BMP180;9774;52.034;5.342;2023-07-31T02:43:57;100685.00;;;22.60
19282;BMP180;9774;52.034;5.342;2023-07-31T02:46:24;100685.00;;;22.60
19282;BMP180;9774;52.034;5.342;2023-07-31T02:48:52;100686.00;;;22.60
19282;BMP180;9774;52.034;5.342;2023-07-31T02:51:20;100687.00;;;22.60
19282;BMP180;9774;52.034;5.342;2023-07-31T02:53:48;100683.00;;;22.60
19282;BMP180;9774;52.034;5.342;2023-07-31T02:56:15;100684.00;;;22.60
19282;BMP180;9774;52.034;5.342;2023-07-31T02:58:43;100686.00;;;22.60
19282;BMP180;9774;52.034;5.342;2023-07-31T03:01:10;100677.00;;;22.60
19282;BMP180;9774;52.034;5.342;2023-07-31T03:03:37;100676.00;;;22.60
19282;BMP180;9774;52.034;5.342;2023-07-31T03:06:04;100679.00;;;22.60
19282;BMP180;9774;52.034;5.342;2023-07-31T03:08:33;100681.00;;;22.60
19282;BMP180;9774;52.034;5.342;2023-07-31T03:11:00;100680.00;;;22.60
19282;BMP180;9774;52.034;5.342;2023-07-31T03:13:27;100686.00;;;22.60
19282;BMP180;9774;52.034;5.342;2023-07-31T03:15:55;100682.00;;;22.50
19282;BMP180;9774;52.034;5.342;2023-07-31T03:18:22;100673.00;;;22.50
19282;BMP180;9774;52.034;5.342;2023-07-31T03:20:49;100679.00;;;22.50
19282;BMP180;9774;52.034;5.342;2023-07-31T03:23:16;100674.00;;;22.50
19282;BMP180;9774;52.034;5.342;2023-07-31T03:25:57;100665.00;;;22.40
19282;BMP180;9774;52.034;5.342;2023-07-31T03:28:24;100669.00;;;22.50
19282;BMP180;9774;52.034;5.342;2023-07-31T03:30:52;100657.00;;;22.50
19282;BMP180;9774;52.034;5.342;2023-07-31T03:33:19;100668.00;;;22.50
19282;BMP180;9774;52.034;5.342;2023-07-31T03:35:47;100660.00;;;22.50
19282;BMP180;9774;52.034;5.342;2023-07-31T03:38:14;100669.00;;;22.50
19282;BMP180;9774;52.034;5.342;2023-07-31T03:40:41;100668.00;;;22.50
19282;BMP180;9774;52.034;5.342;2023-07-31T03:43:10;100664.00;;;22.50
19282;BMP180;9774;52.034;5.342;2023-07-31T03:45:37;100665.00;;;22.50
19282;BMP180;9774;52.034;5.342;2023-07-31T03:48:05;100667.00;;;22.50
19282;BMP180;9774;52.034;5.342;2023-07-31T03:50:33;100662.00;;;22.50
19282;BMP180;9774;52.034;5.342;2023-07-31T03:53:01;100656.00;;;22.50
19282;BMP180;9774;52.034;5.342;2023-07-31T03:55:28;100660.00;;;22.40
19282;BMP180;9774;52.034;5.342;2023-07-31T03:57:55;100649.00;;;22.40
19282;BMP180;9774;52.034;5.342;2023-07-31T04:00:24;100655.00;;;22.40
19282;BMP180;9774;52.034;5.342;2023-07-31T04:02:51;100655.00;;;22.40
19282;BMP180;9774;52.034;5.342;2023-07-31T04:05:18;100652.00;;;22.40
19282;BMP180;9774;52.034;5.342;2023-07-31T04:07:46;100645.00;;;22.40
19282;BMP180;9774;52.034;5.342;2023-07-31T04:10:13;100635.00;;;22.40
19282;BMP180;9774;52.034;5.342;2023-07-31T04:12:41;100639.00;;;22.40
19282;BMP180;9774;52.034;5.342;2023-07-31T04:15:08;100639.00;;;22.40
19282;BMP180;9774;52.034;5.342;2023-07-31T04:17:37;100641.00;;;22.40
19282;BMP180;9774;52.034;5.342;2023-07-31T04:20:05;100628.00;;;22.40
19282;BMP180;9774;52.034;5.342;2023-07-31T04:22:33;100619.00;;;22.40
19282;BMP180;9774;52.034;5.342;2023-07-31T04:25:00;100621.00;;;22.40
19282;BMP180;9774;52.034;5.342;2023-07-31T04:27:27;100621.00;;;22.40
19282;BMP180;9774;52.034;5.342;2023-07-31T04:29:54;100626.00;;;22.40
19282;BMP180;9774;52.034;5.342;2023-07-31T04:32:22;100623.00;;;22.40
19282;BMP180;9774;52.034;5.342;2023-07-31T04:34:50;100619.00;;;22.40
19282;BMP180;9774;52.034;5.342;2023-07-31T04:37:17;100622.00;;;22.40
19282;BMP180;9774;52.034;5.342;2023-07-31T04:39:45;100621.00;;;22.40
19282;BMP180;9774;52.034;5.342;2023-07-31T04:42:12;100615.00;;;22.40
19282;BMP180;9774;52.034;5.342;2023-07-31T04:44:39;100620.00;;;22.40
19282;BMP180;9774;52.034;5.342;2023-07-31T04:47:06;100619.00;;;22.40
19282;BMP180;9774;52.034;5.342;2023-07-31T04:49:34;100618.00;;;22.40
19282;BMP180;9774;52.034;5.342;2023-07-31T04:52:03;100615.00;;;22.30
19282;BMP180;9774;52.034;5.342;2023-07-31T04:54:30;100615.00;;;22.30
19282;BMP180;9774;52.034;5.342;2023-07-31T04:56:57;100603.00;;;22.30
19282;BMP180;9774;52.034;5.342;2023-07-31T04:59:25;100607.00;;;22.30
19282;BMP180;9774;52.034;5.342;2023-07-31T05:01:52;100612.00;;;22.30
19282;BMP180;9774;52.034;5.342;2023-07-31T05:04:19;100598.00;;;22.30
19282;BMP180;9774;52.034;5.342;2023-07-31T05:06:46;100601.00;;;22.30
19282;BMP180;9774;52.034;5.342;2023-07-31T05:09:15;100595.00;;;22.30
19282;BMP180;9774;52.034;5.342;2023-07-31T05:11:42;100604.00;;;22.30
19282;BMP180;9774;52.034;5.342;2023-07-31T05:14:09;100600.00;;;22.30
19282;BMP180;9774;52.034;5.342;2023-07-31T05:16:37;100597.00;;;22.30
19282;BMP180;9774;52.034;5.342;2023-07-31T05:19:04;100602.00;;;22.30
19282;BMP180;9774;52.034;5.342;2023-07-31T05:21:31;100600.00;;;22.30
19282;BMP180;9774;52.034;5.342;2023-07-31T05:23:58;100589.00;;;22.30
19282;BMP180;9774;52.034;5.342;2023-07-31T05:26:27;100592.00;;;22.20
19282;BMP180;9774;52.034;5.342;2023-07-31T05:28:54;100592.00;;;22.30
19282;BMP180;9774;52.034;5.342;2023-07-31T05:31:21;100591.00;;;22.20
19282;BMP180;9774;52.034;5.342;2023-07-31T05:33:50;100598.00;;;22.20
19282;BMP180;9774;52.034;5.342;2023-07-31T05:36:18;100587.00;;;22.20
19282;BMP180;9774;52.034;5.342;2023-07-31T05:38:45;100579.00;;;22.20
19282;BMP180;9774;52.034;5.342;2023-07-31T05:41:12;100579.00;;;22.20
19282;BMP180;9774;52.034;5.342;2023-07-31T05:43:41;100570.00;;;22.20
19282;BMP180;9774;52.034;5.342;2023-07-31T05:46:09;100570.00;;;22.20
19282;BMP180;9774;52.034;5.342;2023-07-31T05:48:37;100561.00;;;22.20
19282;BMP180;9774;52.034;5.342;2023-07-31T05:51:05;100555.00;;;22.20
19282;BMP180;9774;52.034;5.342;2023-07-31T05:53:33;100555.00;;;22.20
19282;BMP180;9774;52.034;5.342;2023-07-31T05:56:02;100551.00;;;22.20
19282;BMP180;9774;52.034;5.342;2023-07-31T05:58:29;100554.00;;;22.20
19282;BMP180;9774;52.034;5.342;2023-07-31T06:00:57;100546.00;;;22.10
19282;BMP180;9774;52.034;5.342;2023-07-31T06:03:25;100550.00;;;22.10
19282;BMP180;9774;52.034;5.342;2023-07-31T06:05:52;100537.00;;;22.10
19282;BMP180;9774;52.034;5.342;2023-07-31T06:08:19;100538.00;;;22.10
19282;BMP180;9774;52.034;5.342;2023-07-31T06:10:46;100542.00;;;22.10
19282;BMP180;9774;52.034;5.342;2023-07-31T06:13:14;100540.00;;;22.10
19282;BMP180;9774;52.034;5.342;2023-07-31T06:15:41;100534.00;;;22.10
19282;BMP180;9774;52.034;5.342;2023-07-31T06:18:10;100534.00;;;22.10
19282;BMP180;9774;52.034;5.342;2023-07-31T06:20:37;100537.00;;;22.10
19282;BMP180;9774;52.034;5.342;2023-07-31T06:23:06;100534.00;;;22.10
19282;BMP180;9774;52.034;5.342;2023-07-31T06:25:33;100535.00;;;22.10
19282;BMP180;9774;52.034;5.342;2023-07-31T06:28:01;100527.00;;;22.10
19282;BMP180;9774;52.034;5.342;2023-07-31T06:30:28;100528.00;;;22.10
19282;BMP180;9774;52.034;5.342;2023-07-31T06:32:55;100526.00;;;22.10
19282;BMP180;9774;52.034;5.342;2023-07-31T06:35:24;100523.00;;;22.10
19282;BMP180;9774;52.034;5.342;2023-07-31T06:37:51;100517.00;;;22.10
19282;BMP180;9774;52.034;5.342;2023-07-31T06:40:18;100518.00;;;22.10
19282;BMP180;9774;52.034;5.342;2023-07-31T06:42:46;100503.00;;;22.10
19282;BMP180;9774;52.034;5.342;2023-07-31T06:45:13;100517.00;;;22.10
19282;BMP180;9774;52.034;5.342;2023-07-31T06:47:40;100508.00;;;22.10
19282;BMP180;9774;52.034;5.342;2023-07-31T06:50:08;100495.00;;;22.10
19282;BMP180;9774;52.034;5.342;2023-07-31T06:52:37;100497.00;;;22.10
19282;BMP180;9774;52.034;5.342;2023-07-31T06:55:16;100491.00;;;22.00
19282;BMP180;9774;52.034;5.342;2023-07-31T06:57:44;100496.00;;;22.10
19282;BMP180;9774;52.034;5.342;2023-07-31T07:00:12;100489.00;;;22.10
19282;BMP180;9774;52.034;5.342;2023-07-31T07:02:40;100484.00;;;22.20
19282;BMP180;9774;52.034;5.342;2023-07-31T07:05:08;100490.00;;;22.20
19282;BMP180;9774;52.034;5.342;2023-07-31T07:07:37;100496.00;;;22.20
19282;BMP180;9774;52.034;5.342;2023-07-31T07:10:05;100489.00;;;22.20
19282;BMP180;9774;52.034;5.342;2023-07-31T07:12:33;100490.00;;;22.20
19282;BMP180;9774;52.034;5.342;2023-07-31T07:14:59;100477.00;;;22.30
19282;BMP180;9774;52.034;5.342;2023-07-31T07:17:28;100483.00;;;22.30
19282;BMP180;9774;52.034;5.342;2023-07-31T07:19:57;100485.00;;;22.30
19282;BMP180;9774;52.034;5.342;2023-07-31T07:22:24;100480.00;;;22.40
19282;BMP180;9774;52.034;5.342;2023-07-31T07:24:54;100481.00;;;22.40
19282;BMP180;9774;52.034;5.342;2023-07-31T07:27:22;100483.00;;;22.40
19282;BMP180;9774;52.034;5.342;2023-07-31T07:29:51;100482.00;;;22.40
19282;BMP180;9774;52.034;5.342;2023-07-31T07:32:19;100484.00;;;22.40
19282;BMP180;9774;52.034;5.342;2023-07-31T07:34:46;100487.00;;;22.40
19282;BMP180;9774;52.034;5.342;2023-07-31T07:37:14;100483.00;;;22.50
19282;BMP180;9774;52.034;5.342;2023-07-31T07:39:41;100486.00;;;22.50
19282;BMP180;9774;52.034;5.342;2023-07-31T07:42:10;100487.00;;;22.50
19282;BMP180;9774;52.034;5.342;2023-07-31T07:44:37;100478.00;;;22.50
19282;BMP180;9774;52.034;5.342;2023-07-31T07:47:05;100480.00;;;22.50
19282;BMP180;9774;52.034;5.342;2023-07-31T07:49:33;100481.00;;;22.60
19282;BMP180;9774;52.034;5.342;2023-07-31T07:52:01;100483.00;;;22.60
19282;BMP180;9774;52.034;5.342;2023-07-31T07:54:28;100477.00;;;22.60
19282;BMP180;9774;52.034;5.342;2023-07-31T07:56:56;100478.00;;;22.60
19282;BMP180;9774;52.034;5.342;2023-07-31T07:59:24;100474.00;;;22.70
19282;BMP180;9774;52.034;5.342;2023-07-31T08:01:52;100481.00;;;22.70
19282;BMP180;9774;52.034;5.342;2023-07-31T08:04:19;100478.00;;;22.70
19282;BMP180;9774;52.034;5.342;2023-07-31T08:06:46;100476.00;;;22.70
19282;BMP180;9774;52.034;5.342;2023-07-31T08:09:13;100467.00;;;22.70
19282;BMP180;9774;52.034;5.342;2023-07-31T08:11:41;100467.00;;;22.80
19282;BMP180;9774;52.034;5.342;2023-07-31T08:14:08;100469.00;;;22.80
19282;BMP180;9774;52.034;5.342;2023-07-31T08:16:37;100470.00;;;22.80
19282;BMP180;9774;52.034;5.342;2023-07-31T08:19:04;100476.00;;;22.80
19282;BMP180;9774;52.034;5.342;2023-07-31T08:21:32;100465.00;;;22.80
19282;BMP180;9774;52.034;5.342;2023-07-31T08:23:59;100466.00;;;22.90
19282;BMP180;9774;52.034;5.342;2023-07-31T08:26:26;100454.00;;;22.90
19282;BMP180;9774;52.034;5.342;2023-07-31T08:28:53;100459.00;;;22.90
19282;BMP180;9774;52.034;5.342;2023-07-31T08:31:21;100453.00;;;22.90
19282;BMP180;9774;52.034;5.342;2023-07-31T08:33:49;100451.00;;;23.00
19282;BMP180;9774;52.034;5.342;2023-07-31T08:36:17;100460.00;;;23.00
19282;BMP180;9774;52.034;5.342;2023-07-31T08:38:46;100449.00;;;23.00
19282;BMP180;9774;52.034;5.342;2023-07-31T08:41:13;100451.00;;;23.00
19282;BMP180;9774;52.034;5.342;2023-07-31T08:43:43;100457.00;;;23.00
19282;BMP180;9774;52.034;5.342;2023-07-31T08:46:11;100451.00;;;23.10
19282;BMP180;9774;52.034;5.342;2023-07-31T08:48:41;100445.00;;;23.10
19282;BMP180;9774;52.034;5.342;2023-07-31T08:51:10;100456.00;;;23.10
19282;BMP180;9774;52.034;5.342;2023-07-31T08:53:37;100449.00;;;23.10
19282;BMP180;9774;52.034;5.342;2023-07-31T08:56:06;100448.00;;;23.10
19282;BMP180;9774;52.034;5.342;2023-07-31T08:58:33;100446.00;;;23.20
19282;BMP180;9774;52.034;5.342;2023-07-31T09:01:03;100448.00;;;23.10
19282;BMP180;9774;52.034;5.342;2023-07-31T09:03:34;100452.00;;;23.10
19282;BMP180;9774;52.034;5.342;2023-07-31T09:06:02;100444.00;;;23.20
19282;BMP180;9774;52.034;5.342;2023-07-31T09:08:33;100460.00;;;23.20
19282;BMP180;9774;52.034;5.342;2023-07-31T09:11:01;100454.00;;;23.20
19282;BMP180;9774;52.034;5.342;2023-07-31T09:13:30;100464.00;;;23.20
19282;BMP180;9774;52.034;5.342;2023-07-31T09:15:58;100452.00;;;23.20
19282;BMP180;9774;52.034;5.342;2023-07-31T09:18:26;100453.00;;;23.20
19282;BMP180;9774;52.034;5.342;2023-07-31T09:21:03;100453.00;;;23.20
19282;BMP180;9774;52.034;5.342;2023-07-31T09:23:47;100432.00;;;23.10
19282;BMP180;9774;52.034;5.342;2023-07-31T09:26:29;100437.00;;;23.10
19282;BMP180;9774;52.034;5.342;2023-07-31T09:28:57;100441.00;;;23.20
19282;BMP180;9774;52.034;5.342;2023-07-31T09:31:33;100441.00;;;23.20
19282;BMP180;9774;52.034;5.342;2023-07-31T09:34:00;100434.00;;;23.30
19282;BMP180;9774;52.034;5.342;2023-07-31T09:36:29;100430.00;;;23.30
19282;BMP180;9774;52.034;5.342;2023-07-31T09:39:02;100431.00;;;23.30
19282;BMP180;9774;52.034;5.342;2023-07-31T09:41:30;100436.00;;;23.30
19282;BMP180;9774;52.034;5.342;2023-07-31T09:43:57;100432.00;;;23.40
19282;BMP180;9774;52.034;5.342;2023-07-31T09:46:27;100426.00;;;23.40
19282;BMP180;9774;52.034;5.342;2023-07-31T09:49:07;100428.00;;;23.40
19282;BMP180;9774;52.034;5.342;2023-07-31T09:51:35;100429.00;;;23.50
19282;BMP180;9774;52.034;5.342;2023-07-31T09:54:09;100433.00;;;23.50
19282;BMP180;9774;52.034;5.342;2023-07-31T09:56:41;100420.00;;;23.50
19282;BMP180;9774;52.034;5.342;2023-07-31T09:59:10;100437.00;;;23.50
19282;BMP180;9774;52.034;5.342;2023-07-31T10:01:39;100422.00;;;23.60
19282;BMP180;9774;52.034;5.342;2023-07-31T10:04:08;100428.00;;;23.60
19282;BMP180;9774;52.034;5.342;2023-07-31T10:06:37;100425.00;;;23.60
19282;BMP180;9774;52.034;5.342;2023-07-31T10:09:08;100419.00;;;23.60
19282;BMP180;9774;52.034;5.342;2023-07-31T10:11:40;100423.00;;;23.60
19282;BMP180;9774;52.034;5.342;2023-07-31T10:14:10;100420.00;;;23.60
19282;BMP180;9774;52.034;5.342;2023-07-31T10:16:39;100422.00;;;23.60
19282;BMP180;9774;52.034;5.342;2023-07-31T10:19:07;100427.00;;;23.70
19282;BMP180;9774;52.034;5.342;2023-07-31T10:21:35;100427.00;;;23.70
19282;BMP180;9774;52.034;5.342;2023-07-31T10:24:05;100431.00;;;23.70
19282;BMP180;9774;52.034;5.342;2023-07-31T10:26:33;100432.00;;;23.70
19282;BMP180;9774;52.034;5.342;2023-07-31T10:29:03;100433.00;;;23.70
19282;BMP180;9774;52.034;5.342;2023-07-31T10:31:30;100430.00;;;23.80
19282;BMP180;9774;52.034;5.342;2023-07-31T10:33:59;100423.00;;;23.80
19282;BMP180;9774;52.034;5.342;2023-07-31T10:36:28;100420.00;;;23.80
19282;BMP180;9774;52.034;5.342;2023-07-31T10:38:56;100426.00;;;23.80
19282;BMP180;9774;52.034;5.342;2023-07-31T10:41:30;100417.00;;;23.80
19282;BMP180;9774;52.034;5.342;2023-07-31T10:43:59;100420.00;;;23.90
19282;BMP180;9774;52.034;5.342;2023-07-31T10:46:28;100417.00;;;23.90
19282;BMP180;9774;52.034;5.342;2023-07-31T10:48:59;100427.00;;;23.90
19282;BMP180;9774;52.034;5.342;2023-07-31T10:51:33;100428.00;;;23.90
19282;BMP180;9774;52.034;5.342;2023-07-31T10:54:12;100425.00;;;23.90
19282;BMP180;9774;52.034;5.342;2023-07-31T10:56:45;100422.00;;;23.90
19282;BMP180;9774;52.034;5.342;2023-07-31T10:59:13;100428.00;;;24.00
19282;BMP180;9774;52.034;5.342;2023-07-31T11:01:52;100413.00;;;23.90
19282;BMP180;9774;52.034;5.342;2023-07-31T11:04:24;100421.00;;;24.00
19282;BMP180;9774;52.034;5.342;2023-07-31T11:06:56;100416.00;;;24.00
19282;BMP180;9774;52.034;5.342;2023-07-31T11:09:27;100430.00;;;24.10
19282;BMP180;9774;52.034;5.342;2023-07-31T11:11:56;100422.00;;;24.00
19282;BMP180;9774;52.034;5.342;2023-07-31T11:14:23;100418.00;;;24.10
19282;BMP180;9774;52.034;5.342;2023-07-31T11:16:51;100425.00;;;24.10
19282;BMP180;9774;52.034;5.342;2023-07-31T11:19:22;100430.00;;;24.00
19282;BMP180;9774;52.034;5.342;2023-07-31T11:21:50;100425.00;;;24.10
19282;BMP180;9774;52.034;5.342;2023-07-31T11:24:17;100424.00;;;24.10
19282;BMP180;9774;52.034;5.342;2023-07-31T11:26:49;100414.00;;;24.00
19282;BMP180;9774;52.034;5.342;2023-07-31T11:29:18;100413.00;;;24.00
19282;BMP180;9774;52.034;5.342;2023-07-31T11:31:47;100412.00;;;24.00
19282;BMP180;9774;52.034;5.342;2023-07-31T11:34:15;100414.00;;;24.10
19282;BMP180;9774;52.034;5.342;2023-07-31T11:36:53;100412.00;;;24.00
19282;BMP180;9774;52.034;5.342;2023-07-31T11:39:20;100403.00;;;24.10
19282;BMP180;9774;52.034;5.342;2023-07-31T11:41:48;100402.00;;;24.10
19282;BMP180;9774;52.034;5.342;2023-07-31T11:44:15;100408.00;;;24.10
19282;BMP180;9774;52.034;5.342;2023-07-31T11:46:44;100408.00;;;24.10
19282;BMP180;9774;52.034;5.342;2023-07-31T11:49:11;100410.00;;;24.10
19282;BMP180;9774;52.034;5.342;2023-07-31T11:51:38;100409.00;;;24.10
19282;BMP180;9774;52.034;5.342;2023-07-31T11:54:06;100409.00;;;24.10
19282;BMP180;9774;52.034;5.342;2023-07-31T11:56:34;100401.00;;;24.10
19282;BMP180;9774;52.034;5.342;2023-07-31T11:59:01;100416.00;;;24.20
19282;BMP180;9774;52.034;5.342;2023-07-31T12:01:31;100405.00;;;24.10
19282;BMP180;9774;52.034;5.342;2023-07-31T12:04:00;100412.00;;;24.20
19282;BMP180;9774;52.034;5.342;2023-07-31T12:06:33;100411.00;;;24.10
19282;BMP180;9774;52.034;5.342;2023-07-31T12:09:03;100418.00;;;24.20
19282;BMP180;9774;52.034;5.342;2023-07-31T12:11:30;100415.00;;;24.20
19282;BMP180;9774;52.034;5.342;2023-07-31T12:13:58;100411.00;;;24.20
19282;BMP180;9774;52.034;5.342;2023-07-31T12:16:27;100423.00;;;24.20
19282;BMP180;9774;52.034;5.342;2023-07-31T12:18:55;100420.00;;;24.20
19282;BMP180;9774;52.034;5.342;2023-07-31T12:21:23;100412.00;;;24.20
19282;BMP180;9774;52.034;5.342;2023-07-31T12:23:54;100411.00;;;24.20
19282;BMP180;9774;52.034;5.342;2023-07-31T12:26:22;100409.00;;;24.20
19282;BMP180;9774;52.034;5.342;2023-07-31T12:28:54;100402.00;;;24.20
19282;BMP180;9774;52.034;5.342;2023-07-31T12:31:22;100392.00;;;24.20
19282;BMP180;9774;52.034;5.342;2023-07-31T12:33:50;100395.00;;;24.20
19282;BMP180;9774;52.034;5.342;2023-07-31T12:36:20;100379.00;;;24.20
19282;BMP180;9774;52.034;5.342;2023-07-31T12:38:49;100381.00;;;24.20
19282;BMP180;9774;52.034;5.342;2023-07-31T12:41:16;100382.00;;;24.20
19282;BMP180;9774;52.034;5.342;2023-07-31T12:43:45;100369.00;;;24.20
19282;BMP180;9774;52.034;5.342;2023-07-31T12:46:12;100362.00;;;24.30
19282;BMP180;9774;52.034;5.342;2023-07-31T12:48:41;100370.00;;;24.30
19282;BMP180;9774;52.034;5.342;2023-07-31T12:51:08;100364.00;;;24.30
19282;BMP180;9774;52.034;5.342;2023-07-31T12:53:35;100363.00;;;24.30
19282;BMP180;9774;52.034;5.342;2023-07-31T12:56:04;100351.00;;;24.30
19282;BMP180;9774;52.034;5.342;2023-07-31T12:58:31;100352.00;;;24.40
19282;BMP180;9774;52.034;5.342;2023-07-31T13:00:59;100347.00;;;24.40
19282;BMP180;9774;52.034;5.342;2023-07-31T13:03:27;100340.00;;;24.50
19282;BMP180;9774;52.034;5.342;2023-07-31T13:05:54;100338.00;;;24.50
19282;BMP180;9774;52.034;5.342;2023-07-31T13:08:22;100349.00;;;24.50
19282;BMP180;9774;52.034;5.342;2023-07-31T13:10:49;100354.00;;;24.60
19282;BMP180;9774;52.034;5.342;2023-07-31T13:13:17;100349.00;;;24.60
19282;BMP180;9774;52.034;5.342;2023-07-31T13:15:45;100347.00;;;24.60
19282;BMP180;9774;52.034;5.342;2023-07-31T13:18:12;100339.00;;;24.70
19282;BMP180;9774;52.034;5.342;2023-07-31T13:20:39;100347.00;;;24.70
19282;BMP180;9774;52.034;5.342;2023-07-31T13:23:06;100339.00;;;24.70
19282;BMP180;9774;52.034;5.342;2023-07-31T13:25:34;100340.00;;;24.70
19282;BMP180;9774;52.034;5.342;2023-07-31T13:28:01;100338.00;;;24.70
19282;BMP180;9774;52.034;5.342;2023-07-31T13:30:29;100321.00;;;24.70
19282;BMP180;9774;52.034;5.342;2023-07-31T13:32:57;100326.00;;;24.70
19282;BMP180;9774;52.034;5.342;2023-07-31T13:35:24;100311.00;;;24.70
19282;BMP180;9774;52.034;5.342;2023-07-31T13:37:51;100324.00;;;24.70
19282;BMP180;9774;52.034;5.342;2023-07-31T13:40:19;100318.00;;;24.70
19282;BMP180;9774;52.034;5.342;2023-07-31T13:42:46;100323.00;;;24.70
19282;BMP180;9774;52.034;5.342;2023-07-31T13:45:14;100319.00;;;24.70
19282;BMP180;9774;52.034;5.342;2023-07-31T13:47:43;100319.00;;;24.70
19282;BMP180;9774;52.034;5.342;2023-07-31T13:50:10;100320.00;;;24.70
19282;BMP180;9774;52.034;5.342;2023-07-31T13:52:37;100323.00;;;24.70
19282;BMP180;9774;52.034;5.342;2023-07-31T13:55:05;100322.00;;;24.70
19282;BMP180;9774;52.034;5.342;2023-07-31T13:57:32;100330.00;;;24.60
19282;BMP180;9774;52.034;5.342;2023-07-31T14:00:00;100313.00;;;24.60
19282;BMP180;9774;52.034;5.342;2023-07-31T14:02:28;100318.00;;;24.60
19282;BMP180;9774;52.034;5.342;2023-07-31T14:04:56;100316.00;;;24.50
19282;BMP180;9774;52.034;5.342;2023-07-31T14:07:24;100309.00;;;24.50
19282;BMP180;9774;52.034;5.342;2023-07-31T14:09:51;100313.00;;;24.50
19282;BMP180;9774;52.034;5.342;2023-07-31T14:12:18;100322.00;;;24.50
19282;BMP180;9774;52.034;5.342;2023-07-31T14:14:45;100321.00;;;24.40